createdAt,value
2019-04-29T00:00:48.987Z,5.61
2019-04-29T00:01:49.209Z,5.73
2019-04-29T00:02:49.426Z,5.82
2019-04-29T00:03:49.648Z,5.83
2019-04-29T00:04:49.870Z,5.89
2019-04-29T00:05:50.091Z,5.80
2019-04-29T00:06:50.315Z,5.90
2019-04-29T00:07:50.539Z,5.86
2019-04-29T00:08:50.764Z,5.84
2019-04-29T00:09:50.983Z,5.87
2019-04-29T00:10:51.204Z,5.84
2019-04-29T00:11:51.433Z,5.86
2019-04-29T00:12:51.652Z,5.76
2019-04-29T00:13:51.874Z,5.76
2019-04-29T00:14:52.099Z,5.65
2019-04-29T00:15:52.322Z,5.54
2019-04-29T00:16:52.546Z,5.39
2019-04-29T00:17:52.768Z,5.26
2019-04-29T00:18:52.998Z,5.26
2019-04-29T00:19:53.216Z,5.38
2019-04-29T00:20:53.440Z,5.39
2019-04-29T00:21:53.663Z,5.38
2019-04-29T00:22:53.890Z,5.17
2019-04-29T00:24:03.511Z,5.08
2019-04-29T00:24:54.330Z,4.99
2019-04-29T00:25:54.553Z,4.94
2019-04-29T00:26:54.777Z,5.02
2019-04-29T00:27:54.999Z,5.07
2019-04-29T00:28:55.223Z,5.00
2019-04-29T00:29:55.447Z,4.94
2019-04-29T00:30:55.668Z,4.89
2019-04-29T00:31:55.890Z,4.94
2019-04-29T00:32:56.114Z,4.82
2019-04-29T00:33:56.335Z,4.87
2019-04-29T00:34:56.560Z,4.94
2019-04-29T00:35:56.785Z,5.02
2019-04-29T00:36:57.008Z,4.80
2019-04-29T00:37:57.230Z,4.89
2019-04-29T00:38:57.454Z,5.08
2019-04-29T00:39:57.676Z,4.90
2019-04-29T00:40:57.897Z,5.04
2019-04-29T00:41:58.120Z,4.94
2019-04-29T00:42:58.339Z,4.92
2019-04-29T00:43:58.564Z,4.92
2019-04-29T00:44:58.786Z,4.82
2019-04-29T00:45:59.012Z,4.84
2019-04-29T00:46:59.235Z,4.82
2019-04-29T00:47:59.465Z,4.84
2019-04-29T00:48:59.677Z,4.86
2019-04-29T00:49:59.907Z,5.02
2019-04-29T00:51:00.132Z,5.02
2019-04-29T00:52:00.354Z,5.08
2019-04-29T00:53:00.572Z,4.94
2019-04-29T00:54:00.796Z,5.05
2019-04-29T00:55:01.019Z,5.11
2019-04-29T00:56:01.241Z,5.18
2019-04-29T00:57:01.469Z,5.12
2019-04-29T00:58:01.687Z,5.14
2019-04-29T00:59:01.909Z,5.07
2019-04-29T01:00:02.134Z,5.08
2019-04-29T01:01:02.357Z,5.14
2019-04-29T01:02:02.581Z,5.20
2019-04-29T01:03:02.803Z,5.04
2019-04-29T01:04:03.026Z,5.00
2019-04-29T01:05:03.248Z,4.97
2019-04-29T01:06:03.480Z,4.96
2019-04-29T01:07:03.692Z,4.94
2019-04-29T01:08:03.915Z,4.96
2019-04-29T01:09:04.140Z,5.02
2019-04-29T01:10:04.365Z,4.92
2019-04-29T01:11:04.593Z,4.93
2019-04-29T01:12:04.807Z,4.89
2019-04-29T01:13:05.034Z,4.96
2019-04-29T01:14:05.255Z,4.96
2019-04-29T01:15:05.480Z,4.82
2019-04-29T01:16:05.703Z,4.77
2019-04-29T01:17:05.926Z,4.78
2019-04-29T01:18:06.149Z,4.89
2019-04-29T01:19:06.371Z,4.82
2019-04-29T01:20:06.597Z,4.78
2019-04-29T01:21:06.831Z,4.80
2019-04-29T01:22:07.043Z,4.73
2019-04-29T01:23:07.265Z,4.75
2019-04-29T01:24:07.490Z,4.82
2019-04-29T01:25:07.712Z,4.74
2019-04-29T01:26:07.930Z,4.71
2019-04-29T01:27:08.153Z,4.70
2019-04-29T01:28:08.374Z,4.67
2019-04-29T01:29:08.598Z,4.59
2019-04-29T01:30:08.821Z,4.62
2019-04-29T01:31:09.045Z,4.67
2019-04-29T01:32:09.268Z,4.49
2019-04-29T01:33:09.487Z,4.50
2019-04-29T01:34:09.712Z,4.40
2019-04-29T01:35:09.933Z,4.49
2019-04-29T01:36:10.152Z,4.45
2019-04-29T01:37:10.381Z,4.48
2019-04-29T01:38:10.601Z,4.59
2019-04-29T01:39:10.827Z,4.66
2019-04-29T01:40:11.052Z,4.63
2019-04-29T01:41:11.272Z,4.71
2019-04-29T01:42:11.493Z,4.75
2019-04-29T01:43:11.714Z,4.80
2019-04-29T01:44:11.936Z,4.70
2019-04-29T01:45:12.160Z,4.82
2019-04-29T01:46:12.386Z,4.71
2019-04-29T01:47:12.601Z,4.73
2019-04-29T01:48:12.825Z,4.56
2019-04-29T01:49:13.052Z,4.58
2019-04-29T01:50:13.271Z,4.53
2019-04-29T01:51:13.491Z,4.66
2019-04-29T01:52:13.720Z,4.74
2019-04-29T01:53:13.942Z,4.62
2019-04-29T01:54:14.159Z,4.53
2019-04-29T01:55:14.383Z,4.58
2019-04-29T01:56:14.605Z,4.58
2019-04-29T01:57:14.829Z,4.55
2019-04-29T01:58:15.055Z,4.56
2019-04-29T01:59:15.272Z,4.42
2019-04-29T02:00:15.495Z,4.49
2019-04-29T02:01:15.720Z,4.40
2019-04-29T02:02:15.946Z,4.56
2019-04-29T02:03:16.167Z,4.67
2019-04-29T02:04:16.390Z,4.70
2019-04-29T02:05:16.614Z,4.63
2019-04-29T02:06:16.835Z,4.66
2019-04-29T02:07:17.059Z,4.70
2019-04-29T02:08:17.285Z,4.66
2019-04-29T02:09:17.515Z,4.50
2019-04-29T02:10:17.745Z,4.56
2019-04-29T02:11:17.951Z,4.62
2019-04-29T02:12:18.175Z,4.63
2019-04-29T02:13:18.398Z,4.58
2019-04-29T02:14:18.620Z,4.52
2019-04-29T02:15:18.846Z,4.40
2019-04-29T02:16:19.066Z,4.41
2019-04-29T02:17:19.289Z,4.26
2019-04-29T02:18:19.511Z,4.28
2019-04-29T02:19:19.733Z,4.24
2019-04-29T02:20:19.956Z,4.23
2019-04-29T02:21:20.179Z,4.30
2019-04-29T02:22:20.404Z,4.20
2019-04-29T02:23:20.626Z,4.23
2019-04-29T02:24:20.849Z,4.44
2019-04-29T02:25:21.076Z,4.42
2019-04-29T02:26:21.296Z,4.52
2019-04-29T02:27:21.519Z,4.60
2019-04-29T02:28:21.741Z,4.60
2019-04-29T02:29:21.963Z,4.68
2019-04-29T02:30:22.191Z,4.59
2019-04-29T02:31:22.409Z,4.59
2019-04-29T02:32:22.629Z,4.49
2019-04-29T02:33:22.871Z,4.34
2019-04-29T02:34:23.073Z,4.28
2019-04-29T02:35:23.297Z,4.31
2019-04-29T02:36:23.524Z,4.35
2019-04-29T02:37:23.741Z,4.28
2019-04-29T02:38:23.964Z,4.37
2019-04-29T02:39:24.188Z,4.31
2019-04-29T02:40:24.411Z,4.32
2019-04-29T02:41:24.633Z,4.30
2019-04-29T02:42:24.855Z,4.23
2019-04-29T02:43:25.092Z,4.30
2019-04-29T02:44:25.307Z,4.38
2019-04-29T02:45:25.521Z,4.38
2019-04-29T02:46:25.747Z,4.48
2019-04-29T02:47:26.041Z,4.59
2019-04-29T02:48:29.192Z,4.59
2019-04-29T02:49:26.417Z,4.60
2019-04-29T02:50:26.640Z,4.60
2019-04-29T02:51:26.868Z,4.63
2019-04-29T02:52:27.086Z,4.67
2019-04-29T02:53:27.310Z,4.66
2019-04-29T02:54:27.533Z,4.73
2019-04-29T02:55:27.755Z,4.58
2019-04-29T02:56:27.978Z,4.66
2019-04-29T02:57:28.201Z,4.60
2019-04-29T02:58:28.425Z,4.41
2019-04-29T02:59:28.772Z,4.55
2019-04-29T03:00:28.870Z,4.63
2019-04-29T03:01:29.092Z,4.59
2019-04-29T03:02:29.316Z,4.55
2019-04-29T03:03:29.539Z,4.50
2019-04-29T03:04:29.763Z,4.31
2019-04-29T03:05:29.985Z,4.30
2019-04-29T03:06:30.227Z,4.24
2019-04-29T03:07:30.431Z,4.23
2019-04-29T03:08:30.656Z,4.24
2019-04-29T03:09:30.879Z,4.40
2019-04-29T03:10:31.110Z,4.44
2019-04-29T03:11:31.323Z,4.41
2019-04-29T03:12:31.544Z,4.38
2019-04-29T03:13:31.765Z,4.41
2019-04-29T03:14:31.999Z,4.41
2019-04-29T03:15:32.211Z,4.38
2019-04-29T03:16:32.432Z,4.41
2019-04-29T03:17:32.660Z,4.34
2019-04-29T03:18:32.880Z,4.41
2019-04-29T03:19:33.099Z,4.42
2019-04-29T03:20:33.323Z,4.38
2019-04-29T03:21:33.548Z,4.40
2019-04-29T03:22:33.775Z,4.42
2019-04-29T03:23:34.007Z,4.45
2019-04-29T03:24:34.215Z,4.62
2019-04-29T03:25:34.441Z,4.75
2019-04-29T03:26:34.664Z,4.71
2019-04-29T03:27:34.886Z,4.84
2019-04-29T03:28:35.110Z,4.66
2019-04-29T03:29:35.329Z,4.67
2019-04-29T03:30:35.556Z,4.59
2019-04-29T03:31:39.474Z,4.58
2019-04-29T03:32:36.012Z,4.60
2019-04-29T03:33:36.228Z,4.58
2019-04-29T03:34:36.454Z,4.70
2019-04-29T03:35:36.683Z,4.77
2019-04-29T03:36:36.893Z,4.67
2019-04-29T03:37:37.115Z,4.82
2019-04-29T03:38:37.341Z,4.78
2019-04-29T03:39:37.559Z,4.67
2019-04-29T03:40:37.785Z,4.59
2019-04-29T03:41:38.007Z,4.53
2019-04-29T03:42:38.230Z,4.59
2019-04-29T03:43:38.461Z,4.59
2019-04-29T03:44:38.685Z,4.62
2019-04-29T03:45:38.911Z,4.68
2019-04-29T03:46:39.127Z,4.67
2019-04-29T03:47:39.361Z,4.75
2019-04-29T03:48:39.578Z,4.80
2019-04-29T03:49:39.800Z,4.78
2019-04-29T03:50:40.025Z,4.75
2019-04-29T03:51:40.250Z,4.78
2019-04-29T03:52:40.472Z,4.78
2019-04-29T03:53:40.695Z,4.75
2019-04-29T03:54:40.919Z,4.62
2019-04-29T03:55:41.142Z,4.67
2019-04-29T03:56:41.369Z,4.68
2019-04-29T03:57:41.588Z,4.75
2019-04-29T03:58:41.832Z,4.66
2019-04-29T03:59:42.042Z,4.55
2019-04-29T04:00:44.202Z,4.62
2019-04-29T04:01:42.481Z,4.56
2019-04-29T04:02:42.707Z,4.45
2019-04-29T04:03:42.931Z,4.50
2019-04-29T04:04:43.155Z,4.71
2019-04-29T04:05:43.377Z,4.68
2019-04-29T04:06:43.624Z,4.62
2019-04-29T04:07:43.879Z,4.62
2019-04-29T04:08:44.041Z,4.66
2019-04-29T04:09:44.270Z,4.67
2019-04-29T04:10:44.493Z,4.53
2019-04-29T04:11:44.715Z,4.52
2019-04-29T04:12:44.939Z,4.55
2019-04-29T04:13:45.280Z,4.53
2019-04-29T04:14:45.387Z,4.45
2019-04-29T04:15:45.615Z,4.38
2019-04-29T04:16:45.832Z,4.44
2019-04-29T04:17:46.062Z,4.35
2019-04-29T04:18:46.281Z,4.52
2019-04-29T04:19:46.505Z,4.52
2019-04-29T04:20:46.723Z,4.60
2019-04-29T04:21:46.959Z,4.63
2019-04-29T04:22:47.260Z,4.77
2019-04-29T04:23:47.394Z,4.84
2019-04-29T04:24:47.619Z,4.89
2019-04-29T04:25:47.847Z,5.07
2019-04-29T04:26:48.068Z,5.04
2019-04-29T04:27:48.291Z,5.15
2019-04-29T04:28:48.521Z,5.20
2019-04-29T04:29:48.742Z,5.35
2019-04-29T04:30:48.970Z,5.35
2019-04-29T04:31:49.193Z,5.47
2019-04-29T04:32:49.420Z,5.28
2019-04-29T04:33:49.638Z,5.18
2019-04-29T04:34:49.857Z,5.29
2019-04-29T04:35:50.078Z,5.20
2019-04-29T04:36:50.303Z,5.35
2019-04-29T04:37:50.524Z,5.50
2019-04-29T04:38:50.753Z,5.65
2019-04-29T04:39:50.972Z,5.93
2019-04-29T04:40:51.200Z,6.17
2019-04-29T04:41:51.426Z,6.41
2019-04-29T04:42:51.648Z,6.36
2019-04-29T04:43:51.869Z,6.42
2019-04-29T04:44:52.095Z,6.59
2019-04-29T04:45:52.387Z,6.67
2019-04-29T04:46:52.552Z,6.75
2019-04-29T04:47:52.773Z,6.84
2019-04-29T04:48:52.998Z,7.24
2019-04-29T04:49:53.221Z,7.40
2019-04-29T04:50:53.445Z,7.54
2019-04-29T04:51:53.670Z,7.47
2019-04-29T04:52:53.896Z,7.54
2019-04-29T04:53:54.118Z,7.80
2019-04-29T04:54:54.348Z,8.00
2019-04-29T04:55:54.571Z,8.19
2019-04-29T04:56:54.836Z,8.27
2019-04-29T04:57:55.017Z,7.90
2019-04-29T04:58:55.239Z,7.79
2019-04-29T04:59:55.464Z,7.61
2019-04-29T05:00:55.689Z,7.50
2019-04-29T05:01:55.914Z,7.39
2019-04-29T05:02:56.137Z,7.29
2019-04-29T05:03:56.361Z,7.39
2019-04-29T05:04:56.585Z,7.29
2019-04-29T05:05:56.810Z,7.43
2019-04-29T05:06:57.035Z,7.23
2019-04-29T05:07:57.259Z,7.24
2019-04-29T05:08:57.485Z,7.07
2019-04-29T05:09:57.709Z,6.99
2019-04-29T05:10:57.935Z,7.18
2019-04-29T05:11:58.163Z,7.31
2019-04-29T05:12:58.384Z,7.60
2019-04-29T05:13:58.617Z,7.45
2019-04-29T05:14:58.833Z,7.43
2019-04-29T05:15:59.058Z,7.42
2019-04-29T05:16:59.281Z,7.21
2019-04-29T05:17:59.505Z,7.28
2019-04-29T05:18:59.732Z,7.11
2019-04-29T05:19:59.958Z,7.13
2019-04-29T05:21:00.182Z,6.93
2019-04-29T05:22:00.409Z,6.84
2019-04-29T05:23:00.634Z,7.00
2019-04-29T05:24:00.861Z,7.13
2019-04-29T05:25:01.085Z,7.17
2019-04-29T05:26:01.313Z,7.24
2019-04-29T05:27:01.537Z,6.95
2019-04-29T05:28:01.761Z,7.33
2019-04-29T05:29:02.003Z,7.29
2019-04-29T05:30:02.213Z,7.42
2019-04-29T05:31:02.441Z,7.18
2019-04-29T05:32:02.668Z,7.18
2019-04-29T05:33:02.893Z,7.24
2019-04-29T05:34:03.115Z,7.36
2019-04-29T05:35:03.342Z,7.31
2019-04-29T05:36:03.948Z,7.23
2019-04-29T05:37:03.789Z,7.25
2019-04-29T05:38:04.047Z,7.47
2019-04-29T05:39:04.248Z,7.42
2019-04-29T05:40:04.467Z,7.40
2019-04-29T05:41:04.691Z,7.53
2019-04-29T05:42:07.693Z,7.45
2019-04-29T05:43:05.273Z,7.50
2019-04-29T05:44:05.362Z,7.47
2019-04-29T05:45:05.585Z,7.50
2019-04-29T05:46:07.537Z,7.76
2019-04-29T05:47:06.038Z,8.06
2019-04-29T05:48:06.260Z,8.31
2019-04-29T05:49:07.202Z,8.37
2019-04-29T05:50:06.799Z,8.53
2019-04-29T05:51:06.936Z,8.69
2019-04-29T05:52:07.160Z,8.56
2019-04-29T05:53:11.636Z,8.66
2019-04-29T05:54:07.607Z,8.71
2019-04-29T05:55:09.554Z,8.71
2019-04-29T05:56:08.055Z,8.56
2019-04-29T05:57:08.280Z,8.55
2019-04-29T05:58:08.509Z,8.33
2019-04-29T05:59:12.772Z,8.60
2019-04-29T06:00:08.951Z,8.87
2019-04-29T06:01:09.178Z,9.02
2019-04-29T06:02:09.398Z,9.26
2019-04-29T06:03:09.627Z,9.25
2019-04-29T06:04:11.582Z,9.14
2019-04-29T06:05:10.065Z,8.92
2019-04-29T06:06:12.296Z,8.82
2019-04-29T06:07:10.521Z,9.08
2019-04-29T06:08:10.743Z,9.23
2019-04-29T06:09:11.471Z,9.34
2019-04-29T06:10:11.193Z,9.39
2019-04-29T06:11:11.422Z,9.31
2019-04-29T06:12:11.643Z,9.58
2019-04-29T06:13:11.866Z,9.61
2019-04-29T06:14:12.092Z,9.64
2019-04-29T06:15:12.319Z,9.61
2019-04-29T06:16:15.984Z,9.72
2019-04-29T06:17:12.767Z,9.80
2019-04-29T06:18:12.992Z,9.77
2019-04-29T06:19:13.225Z,9.73
2019-04-29T06:20:17.919Z,9.84
2019-04-29T06:21:13.672Z,10.07
2019-04-29T06:22:13.902Z,10.05
2019-04-29T06:23:14.123Z,10.28
2019-04-29T06:24:14.357Z,10.57
2019-04-29T06:25:14.585Z,10.53
2019-04-29T06:26:14.798Z,10.63
2019-04-29T06:27:15.025Z,10.54
2019-04-29T06:28:15.249Z,10.57
2019-04-29T06:29:15.475Z,10.87
2019-04-29T06:30:15.703Z,11.11
2019-04-29T06:31:15.925Z,11.41
2019-04-29T06:32:20.277Z,11.45
2019-04-29T06:33:16.381Z,11.65
2019-04-29T06:34:16.611Z,11.81
2019-04-29T06:35:16.837Z,12.21
2019-04-29T06:36:17.059Z,12.64
2019-04-29T06:37:17.290Z,12.73
2019-04-29T06:38:17.514Z,12.82
2019-04-29T06:39:17.742Z,13.42
2019-04-29T06:40:17.969Z,12.76
2019-04-29T06:41:18.197Z,12.60
2019-04-29T06:42:19.590Z,12.29
2019-04-29T06:43:18.659Z,12.06
2019-04-29T06:44:18.872Z,11.94
2019-04-29T06:45:19.098Z,11.68
2019-04-29T06:46:19.321Z,12.07
2019-04-29T06:47:19.551Z,12.55
2019-04-29T06:48:19.779Z,12.43
2019-04-29T06:49:20.006Z,12.40
2019-04-29T06:50:20.233Z,12.57
2019-04-29T06:51:20.458Z,12.25
2019-04-29T06:52:20.686Z,12.49
2019-04-29T06:53:21.842Z,12.68
2019-04-29T06:54:21.138Z,12.86
2019-04-29T06:55:21.360Z,12.75
2019-04-29T06:56:21.594Z,12.91
2019-04-29T06:57:21.861Z,13.13
2019-04-29T06:58:22.049Z,13.13
2019-04-29T06:59:22.268Z,13.15
2019-04-29T07:00:23.987Z,13.11
2019-04-29T07:01:22.727Z,13.09
2019-04-29T07:02:22.955Z,13.13
2019-04-29T07:03:25.470Z,12.95
2019-04-29T07:04:23.410Z,13.03
2019-04-29T07:05:23.643Z,12.73
2019-04-29T07:06:23.865Z,12.60
2019-04-29T07:07:24.098Z,12.61
2019-04-29T07:08:24.320Z,12.65
2019-04-29T07:09:24.548Z,12.58
2019-04-29T07:10:27.046Z,12.50
2019-04-29T07:11:25.013Z,12.80
2019-04-29T07:12:25.235Z,12.64
2019-04-29T07:13:25.459Z,12.68
2019-04-29T07:14:28.361Z,12.87
2019-04-29T07:15:25.914Z,12.60
2019-04-29T07:16:27.310Z,12.50
2019-04-29T07:17:26.372Z,12.68
2019-04-29T07:18:26.598Z,12.79
2019-04-29T07:19:28.282Z,12.85
2019-04-29T07:20:27.049Z,12.94
2019-04-29T07:21:27.278Z,13.09
2019-04-29T07:22:27.604Z,13.28
2019-04-29T07:23:27.730Z,13.38
2019-04-29T07:24:27.970Z,13.57
2019-04-29T07:25:28.722Z,13.53
2019-04-29T07:26:28.420Z,13.42
2019-04-29T07:27:28.649Z,13.57
2019-04-29T07:28:28.898Z,13.44
2019-04-29T07:29:32.304Z,13.44
2019-04-29T07:30:29.637Z,13.56
2019-04-29T07:31:33.378Z,13.52
2019-04-29T07:32:32.270Z,13.20
2019-04-29T07:33:30.012Z,13.38
2019-04-29T07:34:33.867Z,13.44
2019-04-29T07:35:30.463Z,13.44
2019-04-29T07:36:30.692Z,13.54
2019-04-29T07:37:34.117Z,13.54
2019-04-29T07:38:41.291Z,13.62
2019-04-29T07:39:33.148Z,13.70
2019-04-29T07:40:31.602Z,13.74
2019-04-29T07:41:31.830Z,13.79
2019-04-29T07:42:33.310Z,13.79
2019-04-29T07:43:32.286Z,13.83
2019-04-29T07:44:43.325Z,13.93
2019-04-29T07:45:43.540Z,13.77
2019-04-29T07:46:36.342Z,13.56
2019-04-29T07:47:33.193Z,13.59
2019-04-29T07:48:36.950Z,13.63
2019-04-29T07:49:33.649Z,13.42
2019-04-29T07:50:33.883Z,13.50
2019-04-29T07:51:34.837Z,13.60
2019-04-29T07:52:34.335Z,13.74
2019-04-29T07:53:44.466Z,13.90
2019-04-29T07:54:34.791Z,13.93
2019-04-29T07:55:35.021Z,14.10
2019-04-29T07:56:37.854Z,14.25
2019-04-29T07:57:35.477Z,14.36
2019-04-29T07:58:35.704Z,14.55
2019-04-29T07:59:38.506Z,14.65
2019-04-29T08:00:36.158Z,14.55
2019-04-29T08:01:36.388Z,14.59
2019-04-29T08:02:36.614Z,14.70
2019-04-29T08:03:36.844Z,14.73
2019-04-29T08:04:37.071Z,14.55
2019-04-29T08:05:37.298Z,14.89
2019-04-29T08:06:38.074Z,14.94
2019-04-29T08:07:37.752Z,14.84
2019-04-29T08:08:37.982Z,14.66
2019-04-29T08:09:39.838Z,14.73
2019-04-29T08:10:52.217Z,14.81
2019-04-29T08:11:38.668Z,15.07
2019-04-29T08:12:38.903Z,15.24
2019-04-29T08:13:39.124Z,15.33
2019-04-29T08:14:39.348Z,15.44
2019-04-29T08:15:41.414Z,15.42
2019-04-29T08:16:39.805Z,15.28
2019-04-29T08:17:40.033Z,15.49
2019-04-29T08:18:40.262Z,15.33
2019-04-29T08:19:40.488Z,15.58
2019-04-29T08:20:41.473Z,15.61
2019-04-29T08:21:40.946Z,15.58
2019-04-29T08:22:41.212Z,15.54
2019-04-29T08:23:42.384Z,15.64
2019-04-29T08:24:41.629Z,15.62
2019-04-29T08:25:41.860Z,15.97
2019-04-29T08:26:47.258Z,16.13
2019-04-29T08:27:43.856Z,16.13
2019-04-29T08:28:42.548Z,16.38
2019-04-29T08:29:42.775Z,16.51
2019-04-29T08:30:45.905Z,16.42
2019-04-29T08:31:43.231Z,16.60
2019-04-29T08:32:43.461Z,16.57
2019-04-29T08:33:46.823Z,16.65
2019-04-29T08:34:43.917Z,16.79
2019-04-29T08:35:46.675Z,16.87
2019-04-29T08:36:44.374Z,16.69
2019-04-29T08:37:44.605Z,16.71
2019-04-29T08:38:44.831Z,16.91
2019-04-29T08:39:45.064Z,17.01
2019-04-29T08:40:50.223Z,17.08
2019-04-29T08:41:45.513Z,17.14
2019-04-29T08:42:46.873Z,17.26
2019-04-29T08:43:45.973Z,17.20
2019-04-29T08:44:46.200Z,17.31
2019-04-29T08:45:46.429Z,17.41
2019-04-29T08:46:51.727Z,17.41
2019-04-29T08:47:46.881Z,17.41
2019-04-29T08:48:47.117Z,17.49
2019-04-29T08:49:47.338Z,17.36
2019-04-29T08:50:47.568Z,17.45
2019-04-29T08:51:47.794Z,17.34
2019-04-29T08:52:48.023Z,17.26
2019-04-29T08:53:48.248Z,17.22
2019-04-29T08:54:50.867Z,17.22
2019-04-29T08:55:48.707Z,17.14
2019-04-29T08:57:02.265Z,16.79
2019-04-29T08:57:49.160Z,16.57
2019-04-29T08:58:51.050Z,16.39
2019-04-29T08:59:49.614Z,16.16
2019-04-29T09:00:51.345Z,16.35
2019-04-29T09:01:50.074Z,16.38
2019-04-29T09:02:50.304Z,16.26
2019-04-29T09:03:53.845Z,16.15
2019-04-29T09:04:53.635Z,16.15
2019-04-29T09:06:04.449Z,16.43
2019-04-29T09:06:51.219Z,16.23
2019-04-29T09:07:52.625Z,16.13
2019-04-29T09:08:55.472Z,16.41
2019-04-29T09:09:56.254Z,16.50
2019-04-29T09:10:52.132Z,16.66
2019-04-29T09:11:52.360Z,16.69
2019-04-29T09:12:52.589Z,16.61
2019-04-29T09:13:52.816Z,16.64
2019-04-29T09:14:53.047Z,16.71
2019-04-29T09:15:53.272Z,16.68
2019-04-29T09:16:53.499Z,16.84
2019-04-29T09:17:53.728Z,16.69
2019-04-29T09:18:53.957Z,16.57
2019-04-29T09:19:54.184Z,16.41
2019-04-29T09:20:54.413Z,16.56
2019-04-29T09:21:54.640Z,16.49
2019-04-29T09:22:54.867Z,16.47
2019-04-29T09:23:55.100Z,16.60
2019-04-29T09:24:55.325Z,16.68
2019-04-29T09:26:02.524Z,16.74
2019-04-29T09:26:55.772Z,16.87
2019-04-29T09:27:56.451Z,17.19
2019-04-29T09:28:59.808Z,17.31
2019-04-29T09:29:58.823Z,17.01
2019-04-29T09:30:56.690Z,16.91
2019-04-29T09:31:56.914Z,16.90
2019-04-29T09:32:57.144Z,16.86
2019-04-29T09:34:06.279Z,16.96
2019-04-29T09:34:59.483Z,17.11
2019-04-29T09:35:57.829Z,17.27
2019-04-29T09:36:58.058Z,17.42
2019-04-29T09:37:58.570Z,17.46
2019-04-29T09:38:58.513Z,17.56
2019-04-29T09:39:58.744Z,17.68
2019-04-29T09:40:59.527Z,17.57
2019-04-29T09:41:59.201Z,17.36
2019-04-29T09:42:59.431Z,17.38
2019-04-29T09:44:04.088Z,17.41
2019-04-29T09:44:59.885Z,17.45
2019-04-29T09:46:00.370Z,17.44
2019-04-29T09:47:00.349Z,17.42
2019-04-29T09:48:00.568Z,17.45
2019-04-29T09:49:00.797Z,17.54
2019-04-29T09:50:01.025Z,17.70
2019-04-29T09:51:01.258Z,17.57
2019-04-29T09:52:01.482Z,17.72
2019-04-29T09:53:01.772Z,17.67
2019-04-29T09:54:01.949Z,17.45
2019-04-29T09:55:04.081Z,17.20
2019-04-29T09:56:02.394Z,17.20
2019-04-29T09:57:02.625Z,17.26
2019-04-29T09:58:02.854Z,17.24
2019-04-29T09:59:03.084Z,17.04
2019-04-29T10:00:05.181Z,16.84
2019-04-29T10:01:03.543Z,16.81
2019-04-29T10:02:03.768Z,16.96
2019-04-29T10:03:03.992Z,17.01
2019-04-29T10:04:04.222Z,17.12
2019-04-29T10:05:04.452Z,17.23
2019-04-29T10:06:04.678Z,17.38
2019-04-29T10:07:04.907Z,17.38
2019-04-29T10:08:05.135Z,17.39
2019-04-29T10:09:05.366Z,17.51
2019-04-29T10:10:06.894Z,17.60
2019-04-29T10:11:05.821Z,17.56
2019-04-29T10:12:06.048Z,17.44
2019-04-29T10:13:06.274Z,17.36
2019-04-29T10:14:06.504Z,17.11
2019-04-29T10:15:06.734Z,17.14
2019-04-29T10:16:06.962Z,17.31
2019-04-29T10:17:07.196Z,17.09
2019-04-29T10:18:07.420Z,17.09
2019-04-29T10:19:07.657Z,16.99
2019-04-29T10:20:08.279Z,17.06
2019-04-29T10:21:08.108Z,17.16
2019-04-29T10:22:08.332Z,17.11
2019-04-29T10:23:08.558Z,17.05
2019-04-29T10:24:08.788Z,16.94
2019-04-29T10:25:09.011Z,16.90
2019-04-29T10:26:09.245Z,16.71
2019-04-29T10:27:09.470Z,16.74
2019-04-29T10:28:09.698Z,16.66
2019-04-29T10:29:13.876Z,16.66
2019-04-29T10:30:10.155Z,16.61
2019-04-29T10:31:10.383Z,16.61
2019-04-29T10:32:10.614Z,16.78
2019-04-29T10:33:12.785Z,16.84
2019-04-29T10:34:11.069Z,16.90
2019-04-29T10:35:11.298Z,17.12
2019-04-29T10:36:11.523Z,17.16
2019-04-29T10:37:11.753Z,17.23
2019-04-29T10:38:11.982Z,16.96
2019-04-29T10:39:12.210Z,16.89
2019-04-29T10:40:12.443Z,16.84
2019-04-29T10:41:12.666Z,17.09
2019-04-29T10:42:12.893Z,16.99
2019-04-29T10:43:15.539Z,17.20
2019-04-29T10:44:13.348Z,17.26
2019-04-29T10:45:13.578Z,17.48
2019-04-29T10:46:13.804Z,17.51
2019-04-29T10:47:14.033Z,17.54
2019-04-29T10:48:14.266Z,17.63
2019-04-29T10:49:14.496Z,17.63
2019-04-29T10:50:15.407Z,17.68
2019-04-29T10:51:14.952Z,17.78
2019-04-29T10:52:15.181Z,17.82
2019-04-29T10:53:17.224Z,17.89
2019-04-29T10:54:15.638Z,17.97
2019-04-29T10:55:15.865Z,18.00
2019-04-29T10:56:16.093Z,17.94
2019-04-29T10:57:16.327Z,17.56
2019-04-29T10:58:16.554Z,17.54
2019-04-29T10:59:16.779Z,17.52
2019-04-29T11:00:21.523Z,17.64
2019-04-29T11:01:17.238Z,17.65
2019-04-29T11:02:17.466Z,17.59
2019-04-29T11:03:20.779Z,17.46
2019-04-29T11:04:17.923Z,17.46
2019-04-29T11:05:18.146Z,17.20
2019-04-29T11:06:18.375Z,17.06
2019-04-29T11:07:24.442Z,17.04
2019-04-29T11:08:18.810Z,17.06
2019-04-29T11:09:19.039Z,16.97
2019-04-29T11:10:25.294Z,16.96
2019-04-29T11:11:23.311Z,16.83
2019-04-29T11:12:19.726Z,16.74
2019-04-29T11:13:19.953Z,16.81
2019-04-29T11:14:20.180Z,16.99
2019-04-29T11:15:20.409Z,16.90
2019-04-29T11:16:23.026Z,16.90
2019-04-29T11:17:20.863Z,16.99
2019-04-29T11:18:23.303Z,16.89
2019-04-29T11:19:21.319Z,16.97
2019-04-29T11:20:21.748Z,16.91
2019-04-29T11:21:25.039Z,17.01
2019-04-29T11:22:22.008Z,17.24
2019-04-29T11:23:22.232Z,17.22
2019-04-29T11:24:22.461Z,17.33
2019-04-29T11:25:22.690Z,17.29
2019-04-29T11:26:22.985Z,17.08
2019-04-29T11:27:23.150Z,16.83
2019-04-29T11:28:23.379Z,16.54
2019-04-29T11:29:27.341Z,16.64
2019-04-29T11:30:23.837Z,16.69
2019-04-29T11:31:24.067Z,16.74
2019-04-29T11:32:24.924Z,16.58
2019-04-29T11:33:24.527Z,16.39
2019-04-29T11:34:24.755Z,16.20
2019-04-29T11:35:28.459Z,15.97
2019-04-29T11:36:25.215Z,15.94
2019-04-29T11:37:25.440Z,16.13
2019-04-29T11:38:28.559Z,16.13
2019-04-29T11:39:25.896Z,16.21
2019-04-29T11:40:42.706Z,16.10
2019-04-29T11:41:26.353Z,16.08
2019-04-29T11:42:26.581Z,15.91
2019-04-29T11:43:26.807Z,15.90
2019-04-29T11:44:27.900Z,15.97
2019-04-29T11:45:27.262Z,16.00
2019-04-29T11:46:27.493Z,15.97
2019-04-29T11:47:27.737Z,16.10
2019-04-29T11:48:27.943Z,16.23
2019-04-29T11:49:28.172Z,16.20
2019-04-29T11:50:28.400Z,16.23
2019-04-29T11:51:28.629Z,16.33
2019-04-29T11:52:29.305Z,16.33
2019-04-29T11:53:29.088Z,16.20
2019-04-29T11:54:29.312Z,16.31
2019-04-29T11:55:29.547Z,16.29
2019-04-29T11:56:29.769Z,16.12
2019-04-29T11:57:40.358Z,16.09
2019-04-29T11:58:30.226Z,15.98
2019-04-29T11:59:30.577Z,15.98
2019-04-29T12:00:30.683Z,15.88
2019-04-29T12:01:38.414Z,15.62
2019-04-29T12:02:44.602Z,15.73
2019-04-29T12:03:31.366Z,15.61
2019-04-29T12:04:33.398Z,15.54
2019-04-29T12:05:31.823Z,15.59
2019-04-29T12:06:32.139Z,15.54
2019-04-29T12:07:33.937Z,15.55
2019-04-29T12:08:32.469Z,15.46
2019-04-29T12:09:32.699Z,15.46
2019-04-29T12:10:32.929Z,15.57
2019-04-29T12:11:36.269Z,15.46
2019-04-29T12:12:33.421Z,15.57
2019-04-29T12:13:33.725Z,15.64
2019-04-29T12:14:37.848Z,15.59
2019-04-29T12:15:34.106Z,15.55
2019-04-29T12:16:34.323Z,15.36
2019-04-29T12:17:34.549Z,15.18
2019-04-29T12:18:38.077Z,15.14
2019-04-29T12:19:35.010Z,15.22
2019-04-29T12:20:35.249Z,15.03
2019-04-29T12:21:35.475Z,15.03
2019-04-29T12:22:47.748Z,15.03
2019-04-29T12:23:35.930Z,15.06
2019-04-29T12:24:36.158Z,14.97
2019-04-29T12:25:36.552Z,14.94
2019-04-29T12:26:43.031Z,14.88
2019-04-29T12:27:36.841Z,14.81
2019-04-29T12:28:37.903Z,14.82
2019-04-29T12:29:37.300Z,14.77
2019-04-29T12:30:37.522Z,14.85
2019-04-29T12:31:37.752Z,14.78
2019-04-29T12:32:37.981Z,14.89
2019-04-29T12:33:38.314Z,14.81
2019-04-29T12:34:38.433Z,14.99
2019-04-29T12:35:51.192Z,14.97
2019-04-29T12:36:54.830Z,14.91
2019-04-29T12:37:39.114Z,14.92
2019-04-29T12:38:40.517Z,14.94
2019-04-29T12:39:43.476Z,14.66
2019-04-29T12:40:39.799Z,14.62
2019-04-29T12:41:48.551Z,14.62
2019-04-29T12:42:41.424Z,14.59
2019-04-29T12:43:40.480Z,14.47
2019-04-29T12:44:44.460Z,14.32
2019-04-29T12:45:40.942Z,14.43
2019-04-29T12:46:41.159Z,14.36
2019-04-29T12:47:41.390Z,14.40
2019-04-29T12:48:41.614Z,14.47
2019-04-29T12:49:42.494Z,14.50
2019-04-29T12:50:42.063Z,14.48
2019-04-29T12:51:42.291Z,14.44
2019-04-29T12:52:42.518Z,14.48
2019-04-29T12:53:44.801Z,14.43
2019-04-29T12:54:46.189Z,14.36
2019-04-29T12:55:46.099Z,14.45
2019-04-29T12:56:47.964Z,14.44
2019-04-29T12:57:43.653Z,14.53
2019-04-29T12:58:43.883Z,14.53
2019-04-29T12:59:44.102Z,14.53
2019-04-29T13:00:48.089Z,14.55
2019-04-29T13:01:51.393Z,14.45
2019-04-29T13:02:44.789Z,14.60
2019-04-29T13:03:45.013Z,14.53
2019-04-29T13:04:49.822Z,14.58
2019-04-29T13:05:57.476Z,14.65
2019-04-29T13:06:45.696Z,14.59
2019-04-29T13:07:45.949Z,14.59